Terminal Aerodrome Forecast
Issued by NWS

Home | Current Version | Previous Version | Text Only | Print | Product List | Glossary On
Versions: 1 2 3 4 5 6 7 8 9 10 11 12 13 14 15 16 17
000
FTUS46 KSEW 270700 AAA
TAFBLI
TAF AMD
KBLI 270705Z 2707/2806 16006KT P6SM BKN200
      TEMPO 2712/2716 BKN015 BKN050
     FM271700 21006KT P6SM SCT050 BKN200=

USA.gov is the U.S. government's official web portal to all federal, state and local government web resources and services.